createdAt,value
2022-12-26T00:02:02.797Z,3.05
2022-12-26T00:04:51.180Z,2.92
2022-12-26T00:07:23.474Z,2.90
2022-12-26T00:09:53.419Z,2.88
2022-12-26T00:12:23.381Z,2.97
2022-12-26T00:14:54.371Z,2.90
2022-12-26T00:17:26.933Z,3.60
2022-12-26T00:19:56.897Z,4.45
2022-12-26T00:22:26.891Z,3.83
2022-12-26T00:24:56.791Z,4.05
2022-12-26T00:27:26.744Z,3.13
2022-12-26T00:29:56.675Z,3.15
2022-12-26T00:32:29.212Z,3.28
2022-12-26T00:34:59.187Z,3.13
2022-12-26T00:37:29.181Z,2.30
2022-12-26T00:39:59.180Z,2.47
2022-12-26T00:42:29.345Z,2.75
2022-12-26T00:44:59.308Z,2.50
2022-12-26T00:47:31.842Z,2.40
2022-12-26T00:50:14.958Z,2.05
2022-12-26T00:52:45.821Z,2.40
2022-12-26T00:55:15.834Z,2.13
2022-12-26T00:57:45.762Z,2.58
2022-12-26T01:00:17.348Z,2.63
2022-12-26T01:02:50.130Z,2.20
2022-12-26T01:05:20.352Z,2.00
2022-12-26T01:08:22.056Z,2.17
2022-12-26T01:10:42.792Z,1.98
2022-12-26T01:13:12.775Z,2.10
2022-12-26T01:15:42.771Z,1.83
2022-12-26T01:18:15.370Z,2.38
2022-12-26T01:20:45.315Z,1.60
2022-12-26T01:23:15.400Z,1.70
2022-12-26T01:26:15.234Z,2.05
2022-12-26T01:28:35.434Z,2.03
2022-12-26T01:31:05.996Z,1.63
2022-12-26T01:33:38.550Z,1.85
2022-12-26T01:36:09.199Z,1.75
2022-12-26T01:38:39.408Z,1.65
2022-12-26T01:41:20.535Z,1.90
2022-12-26T01:44:06.937Z,1.95
2022-12-26T01:46:41.430Z,1.90
2022-12-26T01:49:18.672Z,2.17
2022-12-26T01:51:54.803Z,1.77
2022-12-26T01:54:37.424Z,1.85
2022-12-26T01:57:15.967Z,2.35
2022-12-26T01:59:48.473Z,2.10
2022-12-26T02:02:19.610Z,2.28
2022-12-26T02:05:07.368Z,2.08
2022-12-26T02:07:38.810Z,2.15
2022-12-26T02:10:13.817Z,2.28
2022-12-26T02:12:44.191Z,1.85
2022-12-26T02:15:16.999Z,2.13
2022-12-26T02:17:50.046Z,2.03
2022-12-26T02:20:25.405Z,2.00
2022-12-26T02:23:23.522Z,2.10
2022-12-26T02:26:30.951Z,1.77
2022-12-26T02:29:28.771Z,2.15
2022-12-26T02:32:10.139Z,2.05
2022-12-26T02:34:45.021Z,2.00
2022-12-26T02:37:26.482Z,2.20
2022-12-26T02:40:10.465Z,2.05
2022-12-26T02:42:51.191Z,1.55
2022-12-26T02:45:42.338Z,2.00
2022-12-26T02:48:19.786Z,2.10
2022-12-26T02:51:11.634Z,2.05
2022-12-26T02:54:01.831Z,1.77
2022-12-26T02:56:49.425Z,2.25
2022-12-26T02:59:55.697Z,1.90
2022-12-26T03:02:44.028Z,2.60
2022-12-26T03:05:36.998Z,2.00
2022-12-26T03:08:31.002Z,2.45
2022-12-26T03:11:14.083Z,2.08
2022-12-26T03:13:46.227Z,2.28
2022-12-26T03:16:30.294Z,2.25
2022-12-26T03:19:05.761Z,2.25
2022-12-26T03:21:43.182Z,2.30
2022-12-26T03:24:15.301Z,2.10
2022-12-26T03:26:49.058Z,2.40
2022-12-26T03:29:33.145Z,2.22
2022-12-26T03:32:05.157Z,2.50
2022-12-26T03:34:35.567Z,2.40
2022-12-26T03:37:48.450Z,2.80
2022-12-26T03:40:59.193Z,2.00
2022-12-26T03:43:57.412Z,1.52
2022-12-26T03:46:47.622Z,1.92
2022-12-26T03:49:35.460Z,2.25
2022-12-26T03:52:29.580Z,2.17
2022-12-26T03:55:18.382Z,2.25
2022-12-26T03:58:06.508Z,2.13
2022-12-26T04:00:50.757Z,2.08
2022-12-26T04:03:37.128Z,2.22
2022-12-26T04:06:24.269Z,2.45
2022-12-26T04:09:14.673Z,1.80
2022-12-26T04:12:00.776Z,2.40
2022-12-26T04:14:53.955Z,1.92
2022-12-26T04:17:50.256Z,2.25
2022-12-26T04:20:27.596Z,2.00
2022-12-26T04:23:14.282Z,2.42
2022-12-26T04:26:02.560Z,2.03
2022-12-26T04:28:45.095Z,2.25
2022-12-26T04:31:37.057Z,1.55
2022-12-26T04:34:24.267Z,1.75
2022-12-26T04:37:11.390Z,1.95
2022-12-26T04:39:55.572Z,1.83
2022-12-26T04:42:42.109Z,1.63
2022-12-26T04:45:14.169Z,1.63
2022-12-26T04:48:04.771Z,1.63
2022-12-26T04:50:32.227Z,1.75
2022-12-26T04:53:02.269Z,1.70
2022-12-26T04:55:35.896Z,1.90
2022-12-26T04:58:09.123Z,2.00
2022-12-26T05:00:39.150Z,1.83
2022-12-26T05:03:21.619Z,1.88
2022-12-26T05:06:07.300Z,1.92
2022-12-26T05:08:52.999Z,1.90
2022-12-26T05:11:23.016Z,2.13
2022-12-26T05:13:56.844Z,1.75
2022-12-26T05:16:40.852Z,2.10
2022-12-26T05:19:26.254Z,2.00
2022-12-26T05:22:08.895Z,1.90
2022-12-26T05:24:54.671Z,2.15
2022-12-26T05:27:37.588Z,1.83
2022-12-26T05:30:12.245Z,2.40
2022-12-26T05:32:54.661Z,1.85
2022-12-26T05:35:24.723Z,1.35
2022-12-26T05:37:54.762Z,2.10
2022-12-26T05:40:24.780Z,1.83
2022-12-26T05:42:55.856Z,1.50
2022-12-26T05:45:28.505Z,1.50
2022-12-26T05:48:01.665Z,1.80
2022-12-26T05:50:32.127Z,1.83
2022-12-26T05:53:04.103Z,2.22
2022-12-26T05:55:36.318Z,1.83
2022-12-26T05:58:06.456Z,1.58
2022-12-26T06:00:39.093Z,1.42
2022-12-26T06:03:09.162Z,2.30
2022-12-26T06:05:39.126Z,1.98
2022-12-26T06:08:09.253Z,2.10
2022-12-26T06:10:39.260Z,1.70
2022-12-26T06:13:09.205Z,2.38
2022-12-26T06:15:43.970Z,1.70
2022-12-26T06:18:14.085Z,2.00
2022-12-26T06:20:44.234Z,2.45
2022-12-26T06:23:14.332Z,4.47
2022-12-26T06:25:44.297Z,1.90
2022-12-26T06:28:14.249Z,4.75
2022-12-26T06:30:46.871Z,2.63
2022-12-26T06:33:17.199Z,3.72
2022-12-26T06:35:47.457Z,6.13
2022-12-26T06:38:17.475Z,9.75
2022-12-26T06:40:47.442Z,3.90
2022-12-26T06:43:17.399Z,5.50
2022-12-26T06:45:57.648Z,4.22
2022-12-26T06:48:27.996Z,1.92
2022-12-26T06:50:58.266Z,1.52
2022-12-26T06:53:28.308Z,1.52
2022-12-26T06:55:58.285Z,2.55
2022-12-26T06:58:28.291Z,2.90
2022-12-26T07:01:07.150Z,3.92
2022-12-26T07:03:37.290Z,3.45
2022-12-26T07:06:09.252Z,2.00
2022-12-26T07:08:39.234Z,1.67
2022-12-26T07:11:16.189Z,2.13
2022-12-26T07:13:46.563Z,6.50
2022-12-26T07:16:19.197Z,2.30
2022-12-26T07:18:49.195Z,3.85
2022-12-26T07:21:19.578Z,3.85
2022-12-26T07:23:49.687Z,1.65
2022-12-26T07:26:19.916Z,5.57
2022-12-26T07:28:50.392Z,3.58
2022-12-26T07:31:23.744Z,4.85
2022-12-26T07:33:55.483Z,3.90
2022-12-26T07:36:27.151Z,3.97
2022-12-26T07:38:57.842Z,4.28
2022-12-26T07:41:40.479Z,3.22
2022-12-26T07:44:12.218Z,3.45
2022-12-26T07:46:46.683Z,3.85
2022-12-26T07:49:17.089Z,3.58
2022-12-26T07:51:47.155Z,3.83
2022-12-26T07:54:17.789Z,2.83
2022-12-26T07:56:48.255Z,2.13
2022-12-26T07:59:20.573Z,2.35
2022-12-26T08:01:53.253Z,1.40
2022-12-26T08:04:23.377Z,2.63
2022-12-26T08:06:55.387Z,2.58
2022-12-26T08:09:26.252Z,2.10
2022-12-26T08:11:56.226Z,2.45
2022-12-26T08:14:26.247Z,2.72
2022-12-26T08:16:59.895Z,3.20
2022-12-26T08:19:30.035Z,3.08
2022-12-26T08:22:00.100Z,3.17
2022-12-26T08:24:30.796Z,3.60
2022-12-26T08:27:00.787Z,3.13
2022-12-26T08:29:31.664Z,2.58
2022-12-26T08:32:05.353Z,2.97
2022-12-26T08:34:36.460Z,2.30
2022-12-26T08:37:06.505Z,1.75
2022-12-26T08:39:37.974Z,1.73
2022-12-26T08:42:08.041Z,1.88
2022-12-26T08:44:38.053Z,1.75
2022-12-26T08:47:10.717Z,2.10
2022-12-26T08:49:44.066Z,1.55
2022-12-26T08:52:14.173Z,1.85
2022-12-26T08:54:44.176Z,1.65
2022-12-26T08:57:15.718Z,2.10
2022-12-26T08:59:46.852Z,1.98
2022-12-26T09:02:19.705Z,2.45
2022-12-26T09:04:50.214Z,2.03
2022-12-26T09:07:20.570Z,2.20
2022-12-26T09:09:51.491Z,2.20
2022-12-26T09:12:21.931Z,2.28
2022-12-26T09:14:53.471Z,2.28
2022-12-26T09:17:28.114Z,2.50
2022-12-26T09:19:58.813Z,2.58
2022-12-26T09:22:42.282Z,2.55
2022-12-26T09:25:13.257Z,2.10
2022-12-26T09:27:43.831Z,2.55
2022-12-26T09:30:14.753Z,2.20
2022-12-26T09:32:52.976Z,2.10
2022-12-26T09:35:23.689Z,2.05
2022-12-26T09:37:54.043Z,2.83
2022-12-26T09:40:30.285Z,2.10
2022-12-26T09:43:12.565Z,2.35
2022-12-26T09:45:55.098Z,2.17
2022-12-26T09:48:34.509Z,2.53
2022-12-26T09:51:04.844Z,3.30
2022-12-26T09:53:38.660Z,2.33
2022-12-26T09:56:23.696Z,2.25
2022-12-26T09:59:06.790Z,2.70
2022-12-26T10:01:39.091Z,2.50
2022-12-26T10:04:29.837Z,2.08
2022-12-26T10:07:12.166Z,2.65
2022-12-26T10:09:58.201Z,2.20
2022-12-26T10:12:41.405Z,4.03
2022-12-26T10:15:25.385Z,3.60
2022-12-26T10:18:06.515Z,2.78
2022-12-26T10:20:46.581Z,2.30
2022-12-26T10:23:33.031Z,3.05
2022-12-26T10:26:10.589Z,4.40
2022-12-26T10:28:46.955Z,3.13
2022-12-26T10:31:22.620Z,2.53
2022-12-26T10:33:59.240Z,2.78
2022-12-26T10:36:37.441Z,2.63
2022-12-26T10:39:17.807Z,2.60
2022-12-26T10:41:50.997Z,3.08
2022-12-26T10:44:27.323Z,2.65
2022-12-26T10:47:12.201Z,3.30
2022-12-26T10:49:43.075Z,3.13
2022-12-26T10:52:15.131Z,3.55
2022-12-26T10:54:50.786Z,2.83
2022-12-26T10:57:41.654Z,2.78
2022-12-26T11:00:21.068Z,3.22
2022-12-26T11:03:06.626Z,2.90
2022-12-26T11:06:06.429Z,3.25
2022-12-26T11:08:43.342Z,3.40
2022-12-26T11:11:23.932Z,3.15
2022-12-26T11:14:03.333Z,3.42
2022-12-26T11:16:37.909Z,3.35
2022-12-26T11:19:08.709Z,2.97
2022-12-26T11:21:38.963Z,3.42
2022-12-26T11:24:20.338Z,4.65
2022-12-26T11:26:53.029Z,4.15
2022-12-26T11:29:24.912Z,3.28
2022-12-26T11:31:59.770Z,3.08
2022-12-26T11:34:35.004Z,2.92
2022-12-26T11:37:07.383Z,3.22
2022-12-26T11:39:39.787Z,2.67
2022-12-26T11:42:21.497Z,3.35
2022-12-26T11:44:55.314Z,3.22
2022-12-26T11:47:28.958Z,3.53
2022-12-26T11:50:07.538Z,3.05
2022-12-26T11:52:44.048Z,4.10
2022-12-26T11:55:34.336Z,2.80
2022-12-26T11:58:20.266Z,3.42
2022-12-26T12:01:15.944Z,3.15
2022-12-26T12:03:49.919Z,2.83
2022-12-26T12:06:47.347Z,3.05
2022-12-26T12:09:24.648Z,2.40
2022-12-26T12:12:03.616Z,2.45
2022-12-26T12:14:55.246Z,2.78
2022-12-26T12:17:32.419Z,2.55
2022-12-26T12:20:35.515Z,2.63
2022-12-26T12:23:33.314Z,2.28
2022-12-26T12:26:11.950Z,2.40
2022-12-26T12:29:10.300Z,2.60
2022-12-26T12:32:01.509Z,2.17
2022-12-26T12:34:49.547Z,2.38
2022-12-26T12:37:30.003Z,2.25
2022-12-26T12:40:07.696Z,2.15
2022-12-26T12:42:47.060Z,2.30
2022-12-26T12:45:30.259Z,1.40
2022-12-26T12:48:25.276Z,1.77
2022-12-26T12:51:03.548Z,2.10
2022-12-26T12:53:51.749Z,1.83
2022-12-26T12:56:30.765Z,1.70
2022-12-26T12:59:09.268Z,2.10
2022-12-26T13:01:43.759Z,2.60
2022-12-26T13:04:21.343Z,3.00
2022-12-26T13:06:55.167Z,4.18
2022-12-26T13:09:29.218Z,2.78
2022-12-26T13:12:03.405Z,1.63
2022-12-26T13:14:39.057Z,1.23
2022-12-26T13:17:12.777Z,2.60
2022-12-26T13:19:58.494Z,1.92
2022-12-26T13:22:56.553Z,2.90
2022-12-26T13:25:26.995Z,6.60
2022-12-26T13:28:09.611Z,7.32
2022-12-26T13:30:41.442Z,1.90
2022-12-26T13:33:17.290Z,1.23
2022-12-26T13:35:56.916Z,0.90
2022-12-26T13:38:52.246Z,0.80
2022-12-26T13:41:36.670Z,1.05
2022-12-26T13:44:09.819Z,0.52
2022-12-26T13:46:57.049Z,1.13
2022-12-26T13:49:36.298Z,1.35
2022-12-26T13:52:34.630Z,1.05
2022-12-26T13:55:39.095Z,0.90
2022-12-26T13:58:26.968Z,1.27
2022-12-26T14:01:01.969Z,0.50
2022-12-26T14:03:52.717Z,0.77
2022-12-26T14:06:48.622Z,0.85
2022-12-26T14:09:54.310Z,1.33
2022-12-26T14:13:00.019Z,1.00
2022-12-26T14:15:50.675Z,1.02
2022-12-26T14:18:34.228Z,1.40
2022-12-26T14:21:24.876Z,0.90
2022-12-26T14:24:02.962Z,2.15
2022-12-26T14:26:46.373Z,0.88
2022-12-26T14:29:26.707Z,0.95
2022-12-26T14:32:13.834Z,0.70
2022-12-26T14:34:56.814Z,0.90
2022-12-26T14:37:34.392Z,0.47
2022-12-26T14:40:21.382Z,1.10
2022-12-26T14:43:29.040Z,0.70
2022-12-26T14:46:00.152Z,0.93
2022-12-26T14:48:53.885Z,1.20
2022-12-26T14:51:42.826Z,1.10
2022-12-26T14:54:38.846Z,1.08
2022-12-26T14:57:39.119Z,1.02
2022-12-26T15:00:32.734Z,0.75
2022-12-26T15:03:33.547Z,1.00
2022-12-26T15:06:38.980Z,0.82
2022-12-26T15:15:03.021Z,2.60
2022-12-26T15:17:44.109Z,2.63
2022-12-26T15:20:47.156Z,2.20
2022-12-26T15:23:48.494Z,3.85
2022-12-26T15:26:58.488Z,2.25
2022-12-26T15:30:06.414Z,2.50
2022-12-26T15:32:46.095Z,3.58
2022-12-26T15:35:24.463Z,2.83
2022-12-26T15:38:21.740Z,1.35
2022-12-26T15:40:58.652Z,2.85
2022-12-26T15:43:42.318Z,1.75
2022-12-26T15:46:21.513Z,1.83
2022-12-26T15:49:08.356Z,2.15
2022-12-26T15:51:56.334Z,1.90
2022-12-26T15:54:51.343Z,1.75
2022-12-26T15:57:29.058Z,1.70
2022-12-26T16:00:13.973Z,2.25
2022-12-26T16:02:49.669Z,2.15
2022-12-26T16:05:45.076Z,1.55
2022-12-26T16:08:41.533Z,1.65
2022-12-26T16:11:18.140Z,1.80
2022-12-26T16:14:13.623Z,1.10
2022-12-26T16:16:44.039Z,1.50
2022-12-26T16:19:23.402Z,1.80
2022-12-26T16:22:11.545Z,1.67
2022-12-26T16:24:43.740Z,1.30
2022-12-26T16:27:20.692Z,1.30
2022-12-26T16:29:52.992Z,1.38
2022-12-26T16:32:28.283Z,1.77
2022-12-26T16:34:59.484Z,1.40
2022-12-26T16:37:33.417Z,1.73
2022-12-26T16:40:22.437Z,1.42
2022-12-26T16:43:02.050Z,1.25
2022-12-26T16:45:35.297Z,1.60
2022-12-26T16:48:09.047Z,1.50
2022-12-26T16:50:50.182Z,1.85
2022-12-26T16:53:25.046Z,1.63
2022-12-26T16:56:00.973Z,1.75
2022-12-26T16:58:37.587Z,1.55
2022-12-26T17:01:11.680Z,2.13
2022-12-26T17:03:50.393Z,3.17
2022-12-26T17:06:26.924Z,1.90
2022-12-26T17:09:01.048Z,1.90
2022-12-26T17:11:33.477Z,2.00
2022-12-26T17:14:05.208Z,1.70
2022-12-26T17:16:36.266Z,1.45
2022-12-26T17:19:19.713Z,1.70
2022-12-26T17:22:22.081Z,1.77
2022-12-26T17:25:15.159Z,1.38
2022-12-26T17:27:45.308Z,1.98
2022-12-26T17:30:30.280Z,1.88
2022-12-26T17:33:05.663Z,1.75
2022-12-26T17:36:21.596Z,2.00
2022-12-26T17:38:29.834Z,2.08
2022-12-26T17:41:06.929Z,1.95
2022-12-26T17:43:38.984Z,3.33
2022-12-26T17:46:13.542Z,2.22
2022-12-26T17:48:44.046Z,2.05
2022-12-26T17:51:18.958Z,1.67
2022-12-26T17:53:51.977Z,1.23
2022-12-26T17:56:27.324Z,1.25
2022-12-26T17:58:57.639Z,1.60
2022-12-26T18:01:27.741Z,1.60
2022-12-26T18:03:57.870Z,1.52
2022-12-26T18:06:28.103Z,1.63
2022-12-26T18:08:58.324Z,1.65
2022-12-26T18:11:30.845Z,1.55
2022-12-26T18:14:01.205Z,1.77
2022-12-26T18:16:31.354Z,1.52
2022-12-26T18:19:01.420Z,1.35
2022-12-26T18:21:31.463Z,15.85
2022-12-26T18:24:01.443Z,7.95
2022-12-26T18:26:34.351Z,2.22
2022-12-26T18:29:04.829Z,1.58
2022-12-26T18:31:34.877Z,1.45
2022-12-26T18:34:04.855Z,1.38
2022-12-26T18:36:37.280Z,1.25
2022-12-26T18:39:08.239Z,1.15
2022-12-26T18:41:40.985Z,1.50
2022-12-26T18:44:11.137Z,1.13
2022-12-26T18:46:41.182Z,1.13
2022-12-26T18:49:12.310Z,1.70
2022-12-26T18:51:42.304Z,0.77
2022-12-26T18:54:12.327Z,1.10
2022-12-26T18:56:44.900Z,1.25
2022-12-26T18:59:15.325Z,1.63
2022-12-26T19:01:45.452Z,1.48
2022-12-26T19:04:17.176Z,1.45
2022-12-26T19:06:47.301Z,1.33
2022-12-26T19:09:17.863Z,0.52
2022-12-26T19:11:51.087Z,0.43
2022-12-26T19:14:24.117Z,0.80
2022-12-26T19:16:54.237Z,0.52
2022-12-26T19:19:26.704Z,0.20
2022-12-26T19:21:56.762Z,0.30
2022-12-26T19:24:27.062Z,0.22
2022-12-26T19:26:59.788Z,0.43
2022-12-26T19:29:29.793Z,0.30
2022-12-26T19:31:59.907Z,0.32
2022-12-26T19:34:30.036Z,0.32
2022-12-26T19:37:00.041Z,0.30
2022-12-26T19:39:30.038Z,0.30
2022-12-26T19:42:02.613Z,0.35
2022-12-26T19:44:32.687Z,0.35
2022-12-26T19:47:11.789Z,0.55
2022-12-26T19:49:43.467Z,0.20
2022-12-26T19:52:14.261Z,0.63
2022-12-26T19:54:44.231Z,0.38
2022-12-26T19:57:16.921Z,0.20
2022-12-26T19:59:47.028Z,0.22
2022-12-26T20:02:17.202Z,0.40
2022-12-26T20:04:47.435Z,0.30
2022-12-26T20:07:17.445Z,0.50
2022-12-26T20:09:47.695Z,0.73
2022-12-26T20:12:20.314Z,0.47
2022-12-26T20:14:50.331Z,0.30
2022-12-26T20:17:20.488Z,0.30
2022-12-26T20:19:52.234Z,0.35
2022-12-26T20:22:22.337Z,0.50
2022-12-26T20:24:52.382Z,0.40
2022-12-26T20:27:25.098Z,0.40
2022-12-26T20:29:55.063Z,0.57
2022-12-26T20:32:25.172Z,0.80
2022-12-26T20:34:55.387Z,1.60
2022-12-26T20:37:25.521Z,2.50
2022-12-26T20:39:59.267Z,1.70
2022-12-26T20:42:32.045Z,0.75
2022-12-26T20:45:02.158Z,0.70
2022-12-26T20:47:33.823Z,0.75
2022-12-26T20:50:03.930Z,2.15
2022-12-26T20:52:34.049Z,0.40
2022-12-26T20:55:04.538Z,0.60
2022-12-26T20:57:37.673Z,0.50
2022-12-26T21:00:09.937Z,0.20
2022-12-26T21:02:40.150Z,0.28
2022-12-26T21:05:10.799Z,0.13
2022-12-26T21:07:41.205Z,0.20
2022-12-26T21:10:12.978Z,0.38
2022-12-26T21:12:45.883Z,0.20
2022-12-26T21:15:16.284Z,0.40
2022-12-26T21:17:46.451Z,0.40
2022-12-26T21:20:17.641Z,0.50
2022-12-26T21:22:47.736Z,0.45
2022-12-26T21:25:17.826Z,0.52
2022-12-26T21:27:52.201Z,0.32
2022-12-26T21:30:25.063Z,0.30
2022-12-26T21:32:55.118Z,0.20
2022-12-26T21:35:25.047Z,0.08
2022-12-26T21:37:55.207Z,0.60
2022-12-26T21:40:27.733Z,0.73
2022-12-26T21:43:00.593Z,0.30
2022-12-26T21:45:30.851Z,0.10
2022-12-26T21:48:00.909Z,0.10
2022-12-26T21:50:30.950Z,0.25
2022-12-26T21:53:01.182Z,0.17
2022-12-26T21:55:36.291Z,0.20
2022-12-26T21:58:09.027Z,0.22
2022-12-26T22:00:39.104Z,0.10
2022-12-26T22:03:21.752Z,0.10
2022-12-26T22:05:51.849Z,0.40
2022-12-26T22:08:22.823Z,0.15
2022-12-26T22:11:05.178Z,0.32
2022-12-26T22:13:47.082Z,0.28
2022-12-26T22:16:17.279Z,0.20
2022-12-26T22:18:49.429Z,0.13
2022-12-26T22:21:21.144Z,0.22
2022-12-26T22:23:52.526Z,0.30
2022-12-26T22:26:24.829Z,0.60
2022-12-26T22:28:57.515Z,0.40
2022-12-26T22:31:30.076Z,0.45
2022-12-26T22:34:01.685Z,0.20
2022-12-26T22:36:32.507Z,0.30
2022-12-26T22:39:03.016Z,0.40
2022-12-26T22:41:33.031Z,0.20
2022-12-26T22:44:05.866Z,0.50
2022-12-26T22:46:36.903Z,0.50
2022-12-26T22:49:07.232Z,0.45
2022-12-26T22:51:37.371Z,0.38
2022-12-26T22:54:08.130Z,0.35
2022-12-26T22:56:38.197Z,0.20
2022-12-26T22:59:27.488Z,0.22
2022-12-26T23:02:02.743Z,1.33
2022-12-26T23:04:33.426Z,0.15
2022-12-26T23:07:04.089Z,0.40
2022-12-26T23:09:34.506Z,0.17
2022-12-26T23:12:17.585Z,0.20
2022-12-26T23:14:50.702Z,0.32
2022-12-26T23:17:41.137Z,0.10
2022-12-26T23:20:28.330Z,0.25
2022-12-26T23:22:59.274Z,0.20
2022-12-26T23:25:30.080Z,0.40
2022-12-26T23:28:12.683Z,0.30
2022-12-26T23:30:45.313Z,0.20
2022-12-26T23:33:15.327Z,0.20
2022-12-26T23:35:45.344Z,0.30
2022-12-26T23:38:15.321Z,0.20
2022-12-26T23:40:45.621Z,0.20
2022-12-26T23:43:15.947Z,0.20
2022-12-26T23:45:48.837Z,0.10
2022-12-26T23:48:19.028Z,0.15
2022-12-26T23:50:49.635Z,0.20
2022-12-26T23:53:19.850Z,0.35
2022-12-26T23:55:49.807Z,0.10
2022-12-26T23:58:19.768Z,0.10
